sensor_id;sensor_type;location;lat;lon;timestamp;P1;durP1;ratioP1;P2;durP2;ratioP2
69956;SDS011;57283;54.816;9.482;2022-07-24T00:00:25;7.95;;;4.40;;
69956;SDS011;57283;54.816;9.482;2022-07-24T00:02:53;7.88;;;4.40;;
69956;SDS011;57283;54.816;9.482;2022-07-24T00:05:21;8.60;;;4.53;;
69956;SDS011;57283;54.816;9.482;2022-07-24T00:07:49;8.77;;;4.40;;
69956;SDS011;57283;54.816;9.482;2022-07-24T00:10:16;7.70;;;4.60;;
69956;SDS011;57283;54.816;9.482;2022-07-24T00:12:44;7.20;;;3.97;;
69956;SDS011;57283;54.816;9.482;2022-07-24T00:15:13;8.10;;;4.30;;
69956;SDS011;57283;54.816;9.482;2022-07-24T00:17:41;7.73;;;4.43;;
69956;SDS011;57283;54.816;9.482;2022-07-24T00:20:09;7.88;;;4.38;;
69956;SDS011;57283;54.816;9.482;2022-07-24T00:22:37;8.68;;;4.28;;
69956;SDS011;57283;54.816;9.482;2022-07-24T00:25:05;8.30;;;4.53;;
69956;SDS011;57283;54.816;9.482;2022-07-24T00:27:32;8.43;;;4.50;;
69956;SDS011;57283;54.816;9.482;2022-07-24T00:30:00;8.47;;;4.37;;
69956;SDS011;57283;54.816;9.482;2022-07-24T00:32:29;9.35;;;4.38;;
69956;SDS011;57283;54.816;9.482;2022-07-24T00:34:56;8.15;;;4.47;;
69956;SDS011;57283;54.816;9.482;2022-07-24T00:37:24;9.27;;;4.32;;
69956;SDS011;57283;54.816;9.482;2022-07-24T00:39:53;9.05;;;4.47;;
69956;SDS011;57283;54.816;9.482;2022-07-24T00:42:21;8.77;;;4.73;;
69956;SDS011;57283;54.816;9.482;2022-07-24T00:44:48;8.70;;;4.85;;
69956;SDS011;57283;54.816;9.482;2022-07-24T00:47:16;9.85;;;4.57;;
69956;SDS011;57283;54.816;9.482;2022-07-24T00:49:45;8.90;;;4.32;;
69956;SDS011;57283;54.816;9.482;2022-07-24T00:52:13;7.45;;;4.10;;
69956;SDS011;57283;54.816;9.482;2022-07-24T00:54:41;9.07;;;4.27;;
69956;SDS011;57283;54.816;9.482;2022-07-24T00:57:08;7.38;;;3.78;;
69956;SDS011;57283;54.816;9.482;2022-07-24T00:59:37;8.07;;;4.40;;
69956;SDS011;57283;54.816;9.482;2022-07-24T01:02:04;8.70;;;4.13;;
69956;SDS011;57283;54.816;9.482;2022-07-24T01:04:32;8.43;;;4.63;;
69956;SDS011;57283;54.816;9.482;2022-07-24T01:07:01;10.90;;;3.97;;
69956;SDS011;57283;54.816;9.482;2022-07-24T01:09:29;9.20;;;4.55;;
69956;SDS011;57283;54.816;9.482;2022-07-24T01:11:57;11.60;;;4.97;;
69956;SDS011;57283;54.816;9.482;2022-07-24T01:14:25;8.88;;;4.53;;
69956;SDS011;57283;54.816;9.482;2022-07-24T01:16:52;9.38;;;4.40;;
69956;SDS011;57283;54.816;9.482;2022-07-24T01:19:20;8.53;;;4.37;;
69956;SDS011;57283;54.816;9.482;2022-07-24T01:21:50;10.63;;;5.00;;
69956;SDS011;57283;54.816;9.482;2022-07-24T01:24:18;7.95;;;4.40;;
69956;SDS011;57283;54.816;9.482;2022-07-24T01:26:46;8.60;;;4.47;;
69956;SDS011;57283;54.816;9.482;2022-07-24T01:29:14;10.55;;;4.60;;
69956;SDS011;57283;54.816;9.482;2022-07-24T01:31:42;10.77;;;4.43;;
69956;SDS011;57283;54.816;9.482;2022-07-24T01:34:10;7.80;;;4.55;;
69956;SDS011;57283;54.816;9.482;2022-07-24T01:36:38;10.05;;;4.00;;
69956;SDS011;57283;54.816;9.482;2022-07-24T01:39:07;10.93;;;4.53;;
69956;SDS011;57283;54.816;9.482;2022-07-24T01:41:34;8.73;;;4.32;;
69956;SDS011;57283;54.816;9.482;2022-07-24T01:44:02;9.33;;;4.47;;
69956;SDS011;57283;54.816;9.482;2022-07-24T01:46:30;9.93;;;4.22;;
69956;SDS011;57283;54.816;9.482;2022-07-24T01:48:57;8.63;;;4.40;;
69956;SDS011;57283;54.816;9.482;2022-07-24T01:51:25;8.77;;;4.53;;
69956;SDS011;57283;54.816;9.482;2022-07-24T01:53:53;10.57;;;4.60;;
69956;SDS011;57283;54.816;9.482;2022-07-24T01:56:22;8.33;;;4.43;;
69956;SDS011;57283;54.816;9.482;2022-07-24T01:58:53;9.60;;;4.80;;
69956;SDS011;57283;54.816;9.482;2022-07-24T02:01:20;8.52;;;4.38;;
69956;SDS011;57283;54.816;9.482;2022-07-24T02:03:48;8.35;;;4.40;;
69956;SDS011;57283;54.816;9.482;2022-07-24T02:06:16;10.57;;;4.85;;
69956;SDS011;57283;54.816;9.482;2022-07-24T02:08:44;8.57;;;4.60;;
69956;SDS011;57283;54.816;9.482;2022-07-24T02:11:12;8.43;;;4.35;;
69956;SDS011;57283;54.816;9.482;2022-07-24T02:13:41;9.27;;;4.72;;
69956;SDS011;57283;54.816;9.482;2022-07-24T02:16:08;12.32;;;4.95;;
69956;SDS011;57283;54.816;9.482;2022-07-24T02:18:36;10.98;;;5.18;;
69956;SDS011;57283;54.816;9.482;2022-07-24T02:21:04;9.03;;;4.60;;
69956;SDS011;57283;54.816;9.482;2022-07-24T02:23:32;9.20;;;4.70;;
69956;SDS011;57283;54.816;9.482;2022-07-24T02:25:59;12.38;;;4.60;;
69956;SDS011;57283;54.816;9.482;2022-07-24T02:28:27;9.13;;;4.35;;
69956;SDS011;57283;54.816;9.482;2022-07-24T02:30:56;9.95;;;4.53;;
69956;SDS011;57283;54.816;9.482;2022-07-24T02:33:23;8.43;;;4.50;;
69956;SDS011;57283;54.816;9.482;2022-07-24T02:35:51;10.45;;;4.40;;
69956;SDS011;57283;54.816;9.482;2022-07-24T02:38:19;8.20;;;4.18;;
69956;SDS011;57283;54.816;9.482;2022-07-24T02:40:46;8.40;;;4.25;;
69956;SDS011;57283;54.816;9.482;2022-07-24T02:43:14;11.23;;;4.50;;
69956;SDS011;57283;54.816;9.482;2022-07-24T02:45:41;9.33;;;4.47;;
69956;SDS011;57283;54.816;9.482;2022-07-24T02:48:19;8.38;;;4.40;;
69956;SDS011;57283;54.816;9.482;2022-07-24T02:50:47;8.65;;;4.05;;
69956;SDS011;57283;54.816;9.482;2022-07-24T02:53:14;9.00;;;4.20;;
69956;SDS011;57283;54.816;9.482;2022-07-24T02:55:42;10.55;;;4.50;;
69956;SDS011;57283;54.816;9.482;2022-07-24T02:58:10;7.57;;;4.10;;
69956;SDS011;57283;54.816;9.482;2022-07-24T03:00:37;8.90;;;3.90;;
69956;SDS011;57283;54.816;9.482;2022-07-24T03:03:05;8.82;;;3.90;;
69956;SDS011;57283;54.816;9.482;2022-07-24T03:05:34;8.52;;;3.80;;
69956;SDS011;57283;54.816;9.482;2022-07-24T03:08:02;8.02;;;4.07;;
69956;SDS011;57283;54.816;9.482;2022-07-24T03:10:30;8.93;;;3.77;;
69956;SDS011;57283;54.816;9.482;2022-07-24T03:12:57;7.70;;;3.78;;
69956;SDS011;57283;54.816;9.482;2022-07-24T03:15:25;7.07;;;3.83;;
69956;SDS011;57283;54.816;9.482;2022-07-24T03:17:53;9.73;;;3.90;;
69956;SDS011;57283;54.816;9.482;2022-07-24T03:20:23;8.48;;;3.95;;
69956;SDS011;57283;54.816;9.482;2022-07-24T03:22:52;8.80;;;3.70;;
69956;SDS011;57283;54.816;9.482;2022-07-24T03:25:21;8.30;;;3.65;;
69956;SDS011;57283;54.816;9.482;2022-07-24T03:27:49;7.10;;;3.70;;
69956;SDS011;57283;54.816;9.482;2022-07-24T03:30:16;7.35;;;3.67;;
69956;SDS011;57283;54.816;9.482;2022-07-24T03:32:44;8.90;;;3.90;;
69956;SDS011;57283;54.816;9.482;2022-07-24T03:35:12;10.30;;;4.07;;
69956;SDS011;57283;54.816;9.482;2022-07-24T03:37:40;8.85;;;4.10;;
69956;SDS011;57283;54.816;9.482;2022-07-24T03:40:10;7.85;;;4.35;;
69956;SDS011;57283;54.816;9.482;2022-07-24T03:42:38;9.30;;;4.22;;
69956;SDS011;57283;54.816;9.482;2022-07-24T03:45:06;10.07;;;4.25;;
69956;SDS011;57283;54.816;9.482;2022-07-24T03:47:34;8.20;;;4.13;;
69956;SDS011;57283;54.816;9.482;2022-07-24T03:50:01;8.60;;;4.03;;
69956;SDS011;57283;54.816;9.482;2022-07-24T03:52:29;7.93;;;4.20;;
69956;SDS011;57283;54.816;9.482;2022-07-24T03:54:57;9.02;;;3.90;;
69956;SDS011;57283;54.816;9.482;2022-07-24T03:57:26;7.03;;;3.70;;
69956;SDS011;57283;54.816;9.482;2022-07-24T03:59:53;7.77;;;3.70;;
69956;SDS011;57283;54.816;9.482;2022-07-24T04:02:21;11.18;;;4.13;;
69956;SDS011;57283;54.816;9.482;2022-07-24T04:04:48;8.45;;;4.18;;
69956;SDS011;57283;54.816;9.482;2022-07-24T04:07:16;10.35;;;3.85;;
69956;SDS011;57283;54.816;9.482;2022-07-24T04:09:44;7.30;;;3.95;;
69956;SDS011;57283;54.816;9.482;2022-07-24T04:12:11;8.23;;;4.33;;
69956;SDS011;57283;54.816;9.482;2022-07-24T04:14:40;6.93;;;3.92;;
69956;SDS011;57283;54.816;9.482;2022-07-24T04:17:08;7.72;;;4.13;;
69956;SDS011;57283;54.816;9.482;2022-07-24T04:19:36;8.75;;;4.20;;
69956;SDS011;57283;54.816;9.482;2022-07-24T04:22:03;7.82;;;4.30;;
69956;SDS011;57283;54.816;9.482;2022-07-24T04:24:31;7.10;;;4.17;;
69956;SDS011;57283;54.816;9.482;2022-07-24T04:26:59;7.13;;;4.10;;
69956;SDS011;57283;54.816;9.482;2022-07-24T04:29:27;9.43;;;4.25;;
69956;SDS011;57283;54.816;9.482;2022-07-24T04:31:56;8.68;;;4.10;;
69956;SDS011;57283;54.816;9.482;2022-07-24T04:34:23;7.05;;;4.10;;
69956;SDS011;57283;54.816;9.482;2022-07-24T04:36:51;7.93;;;3.80;;
69956;SDS011;57283;54.816;9.482;2022-07-24T04:39:19;6.47;;;3.90;;
69956;SDS011;57283;54.816;9.482;2022-07-24T04:41:47;8.43;;;3.58;;
69956;SDS011;57283;54.816;9.482;2022-07-24T04:44:14;5.85;;;3.50;;
69956;SDS011;57283;54.816;9.482;2022-07-24T04:46:42;7.47;;;3.63;;
69956;SDS011;57283;54.816;9.482;2022-07-24T04:49:11;9.77;;;3.33;;
69956;SDS011;57283;54.816;9.482;2022-07-24T04:51:39;7.30;;;3.60;;
69956;SDS011;57283;54.816;9.482;2022-07-24T04:54:06;5.75;;;3.38;;
69956;SDS011;57283;54.816;9.482;2022-07-24T04:56:34;8.18;;;3.65;;
69956;SDS011;57283;54.816;9.482;2022-07-24T04:59:02;5.82;;;3.50;;
69956;SDS011;57283;54.816;9.482;2022-07-24T05:01:30;6.03;;;3.00;;
69956;SDS011;57283;54.816;9.482;2022-07-24T05:03:58;6.50;;;3.20;;
69956;SDS011;57283;54.816;9.482;2022-07-24T05:06:27;7.20;;;3.10;;
69956;SDS011;57283;54.816;9.482;2022-07-24T05:08:54;7.95;;;3.08;;
69956;SDS011;57283;54.816;9.482;2022-07-24T05:11:22;6.57;;;3.00;;
69956;SDS011;57283;54.816;9.482;2022-07-24T05:13:50;6.30;;;3.00;;
69956;SDS011;57283;54.816;9.482;2022-07-24T05:16:17;6.43;;;2.90;;
69956;SDS011;57283;54.816;9.482;2022-07-24T05:18:45;7.45;;;3.08;;
69956;SDS011;57283;54.816;9.482;2022-07-24T05:21:12;6.05;;;2.85;;
69956;SDS011;57283;54.816;9.482;2022-07-24T05:23:42;4.80;;;2.92;;
69956;SDS011;57283;54.816;9.482;2022-07-24T05:26:10;8.53;;;3.00;;
69956;SDS011;57283;54.816;9.482;2022-07-24T05:28:38;6.43;;;2.90;;
69956;SDS011;57283;54.816;9.482;2022-07-24T05:31:05;5.63;;;3.03;;
69956;SDS011;57283;54.816;9.482;2022-07-24T05:33:34;6.07;;;3.25;;
69956;SDS011;57283;54.816;9.482;2022-07-24T05:36:02;5.82;;;3.10;;
69956;SDS011;57283;54.816;9.482;2022-07-24T05:38:30;6.53;;;3.00;;
69956;SDS011;57283;54.816;9.482;2022-07-24T05:40:59;5.38;;;3.00;;
69956;SDS011;57283;54.816;9.482;2022-07-24T05:43:28;5.70;;;3.20;;
69956;SDS011;57283;54.816;9.482;2022-07-24T05:45:57;6.32;;;3.40;;
69956;SDS011;57283;54.816;9.482;2022-07-24T05:48:24;6.13;;;3.20;;
69956;SDS011;57283;54.816;9.482;2022-07-24T05:50:52;5.90;;;3.20;;
69956;SDS011;57283;54.816;9.482;2022-07-24T05:53:20;7.15;;;3.50;;
69956;SDS011;57283;54.816;9.482;2022-07-24T05:55:47;5.82;;;3.25;;
69956;SDS011;57283;54.816;9.482;2022-07-24T05:58:16;6.13;;;2.88;;
69956;SDS011;57283;54.816;9.482;2022-07-24T06:00:44;5.45;;;3.30;;
69956;SDS011;57283;54.816;9.482;2022-07-24T06:03:12;6.80;;;3.03;;
69956;SDS011;57283;54.816;9.482;2022-07-24T06:05:39;6.82;;;3.03;;
69956;SDS011;57283;54.816;9.482;2022-07-24T06:08:07;5.85;;;3.10;;
69956;SDS011;57283;54.816;9.482;2022-07-24T06:10:35;5.35;;;3.20;;
69956;SDS011;57283;54.816;9.482;2022-07-24T06:13:03;5.88;;;3.03;;
69956;SDS011;57283;54.816;9.482;2022-07-24T06:15:33;5.30;;;2.93;;
69956;SDS011;57283;54.816;9.482;2022-07-24T06:18:06;5.80;;;2.80;;
69956;SDS011;57283;54.816;9.482;2022-07-24T06:20:33;5.88;;;2.90;;
69956;SDS011;57283;54.816;9.482;2022-07-24T06:23:01;5.60;;;2.80;;
69956;SDS011;57283;54.816;9.482;2022-07-24T06:25:29;4.78;;;2.80;;
69956;SDS011;57283;54.816;9.482;2022-07-24T06:27:56;4.97;;;2.27;;
69956;SDS011;57283;54.816;9.482;2022-07-24T06:30:25;6.25;;;2.40;;
69956;SDS011;57283;54.816;9.482;2022-07-24T06:32:54;5.22;;;2.63;;
69956;SDS011;57283;54.816;9.482;2022-07-24T06:35:22;7.80;;;2.67;;
69956;SDS011;57283;54.816;9.482;2022-07-24T06:37:50;5.53;;;2.70;;
69956;SDS011;57283;54.816;9.482;2022-07-24T06:40:18;5.57;;;2.70;;
69956;SDS011;57283;54.816;9.482;2022-07-24T06:42:47;5.82;;;3.05;;
69956;SDS011;57283;54.816;9.482;2022-07-24T06:45:15;5.50;;;2.80;;
69956;SDS011;57283;54.816;9.482;2022-07-24T06:47:42;6.63;;;3.10;;
69956;SDS011;57283;54.816;9.482;2022-07-24T06:50:12;5.18;;;2.60;;
69956;SDS011;57283;54.816;9.482;2022-07-24T06:52:40;5.13;;;2.70;;
69956;SDS011;57283;54.816;9.482;2022-07-24T06:55:08;5.43;;;2.67;;
69956;SDS011;57283;54.816;9.482;2022-07-24T06:57:36;5.13;;;2.40;;
69956;SDS011;57283;54.816;9.482;2022-07-24T07:00:05;4.88;;;2.50;;
69956;SDS011;57283;54.816;9.482;2022-07-24T07:02:33;4.30;;;2.63;;
69956;SDS011;57283;54.816;9.482;2022-07-24T07:05:00;5.93;;;2.73;;
69956;SDS011;57283;54.816;9.482;2022-07-24T07:07:30;4.47;;;2.42;;
69956;SDS011;57283;54.816;9.482;2022-07-24T07:09:57;5.25;;;2.30;;
69956;SDS011;57283;54.816;9.482;2022-07-24T07:12:25;4.53;;;2.70;;
69956;SDS011;57283;54.816;9.482;2022-07-24T07:14:52;4.15;;;2.53;;
69956;SDS011;57283;54.816;9.482;2022-07-24T07:17:20;6.33;;;2.50;;
69956;SDS011;57283;54.816;9.482;2022-07-24T07:19:48;4.22;;;2.30;;
69956;SDS011;57283;54.816;9.482;2022-07-24T07:22:15;4.53;;;2.40;;
69956;SDS011;57283;54.816;9.482;2022-07-24T07:24:44;4.75;;;2.30;;
69956;SDS011;57283;54.816;9.482;2022-07-24T07:27:12;4.38;;;2.72;;
69956;SDS011;57283;54.816;9.482;2022-07-24T07:29:40;4.63;;;2.90;;
69956;SDS011;57283;54.816;9.482;2022-07-24T07:32:07;6.15;;;2.60;;
69956;SDS011;57283;54.816;9.482;2022-07-24T07:34:35;5.20;;;2.63;;
69956;SDS011;57283;54.816;9.482;2022-07-24T07:37:03;5.05;;;3.10;;
69956;SDS011;57283;54.816;9.482;2022-07-24T07:39:30;4.90;;;2.75;;
69956;SDS011;57283;54.816;9.482;2022-07-24T07:41:59;6.00;;;2.73;;
69956;SDS011;57283;54.816;9.482;2022-07-24T07:44:27;5.10;;;3.42;;
69956;SDS011;57283;54.816;9.482;2022-07-24T07:46:54;4.70;;;2.83;;
69956;SDS011;57283;54.816;9.482;2022-07-24T07:49:22;4.55;;;2.75;;
69956;SDS011;57283;54.816;9.482;2022-07-24T07:51:50;5.22;;;3.00;;
69956;SDS011;57283;54.816;9.482;2022-07-24T07:54:18;5.80;;;2.90;;
69956;SDS011;57283;54.816;9.482;2022-07-24T07:56:46;5.00;;;3.10;;
69956;SDS011;57283;54.816;9.482;2022-07-24T07:59:15;5.57;;;3.10;;
69956;SDS011;57283;54.816;9.482;2022-07-24T08:01:43;4.07;;;2.53;;
69956;SDS011;57283;54.816;9.482;2022-07-24T08:04:10;4.32;;;3.10;;
69956;SDS011;57283;54.816;9.482;2022-07-24T08:06:38;4.63;;;3.30;;
69956;SDS011;57283;54.816;9.482;2022-07-24T08:09:05;5.10;;;3.15;;
69956;SDS011;57283;54.816;9.482;2022-07-24T08:11:35;4.20;;;3.15;;
69956;SDS011;57283;54.816;9.482;2022-07-24T08:14:02;5.95;;;3.45;;
69956;SDS011;57283;54.816;9.482;2022-07-24T08:16:31;5.50;;;3.53;;
69956;SDS011;57283;54.816;9.482;2022-07-24T08:18:59;7.17;;;4.33;;
69956;SDS011;57283;54.816;9.482;2022-07-24T08:21:26;7.00;;;3.40;;
69956;SDS011;57283;54.816;9.482;2022-07-24T08:23:54;4.50;;;3.10;;
69956;SDS011;57283;54.816;9.482;2022-07-24T08:26:22;3.92;;;3.10;;
69956;SDS011;57283;54.816;9.482;2022-07-24T08:28:49;5.88;;;3.50;;
69956;SDS011;57283;54.816;9.482;2022-07-24T08:31:17;5.00;;;3.70;;
69956;SDS011;57283;54.816;9.482;2022-07-24T08:33:46;4.28;;;3.47;;
69956;SDS011;57283;54.816;9.482;2022-07-24T08:36:14;4.73;;;3.90;;
69956;SDS011;57283;54.816;9.482;2022-07-24T08:38:41;5.00;;;3.70;;
69956;SDS011;57283;54.816;9.482;2022-07-24T08:41:12;4.75;;;3.42;;
69956;SDS011;57283;54.816;9.482;2022-07-24T08:43:41;5.50;;;3.83;;
69956;SDS011;57283;54.816;9.482;2022-07-24T08:46:09;5.75;;;4.10;;
69956;SDS011;57283;54.816;9.482;2022-07-24T08:48:39;5.55;;;3.65;;
69956;SDS011;57283;54.816;9.482;2022-07-24T08:51:11;5.22;;;3.80;;
69956;SDS011;57283;54.816;9.482;2022-07-24T08:53:39;5.22;;;3.80;;
69956;SDS011;57283;54.816;9.482;2022-07-24T08:56:06;5.10;;;4.07;;
69956;SDS011;57283;54.816;9.482;2022-07-24T08:58:37;6.47;;;3.80;;
69956;SDS011;57283;54.816;9.482;2022-07-24T09:01:06;4.70;;;3.67;;
69956;SDS011;57283;54.816;9.482;2022-07-24T09:03:43;5.68;;;4.00;;
69956;SDS011;57283;54.816;9.482;2022-07-24T09:06:13;5.63;;;4.55;;
69956;SDS011;57283;54.816;9.482;2022-07-24T09:08:41;6.47;;;3.95;;
69956;SDS011;57283;54.816;9.482;2022-07-24T09:11:09;6.10;;;3.63;;
69956;SDS011;57283;54.816;9.482;2022-07-24T09:13:39;5.38;;;4.47;;
69956;SDS011;57283;54.816;9.482;2022-07-24T09:16:25;6.85;;;4.40;;
69956;SDS011;57283;54.816;9.482;2022-07-24T09:19:02;4.57;;;3.67;;
69956;SDS011;57283;54.816;9.482;2022-07-24T09:21:36;5.00;;;4.20;;
69956;SDS011;57283;54.816;9.482;2022-07-24T09:24:10;5.50;;;4.13;;
69956;SDS011;57283;54.816;9.482;2022-07-24T09:26:45;7.82;;;4.00;;
69956;SDS011;57283;54.816;9.482;2022-07-24T09:29:13;5.68;;;4.25;;
69956;SDS011;57283;54.816;9.482;2022-07-24T09:31:54;6.63;;;5.75;;
69956;SDS011;57283;54.816;9.482;2022-07-24T09:34:22;6.97;;;4.43;;
69956;SDS011;57283;54.816;9.482;2022-07-24T09:37:00;5.35;;;4.68;;
69956;SDS011;57283;54.816;9.482;2022-07-24T09:39:29;6.13;;;4.90;;
69956;SDS011;57283;54.816;9.482;2022-07-24T09:41:58;5.43;;;4.63;;
69956;SDS011;57283;54.816;9.482;2022-07-24T09:44:27;5.50;;;4.90;;
69956;SDS011;57283;54.816;9.482;2022-07-24T09:46:56;5.77;;;4.80;;
69956;SDS011;57283;54.816;9.482;2022-07-24T09:49:24;5.40;;;4.80;;
69956;SDS011;57283;54.816;9.482;2022-07-24T09:52:07;6.68;;;4.72;;
69956;SDS011;57283;54.816;9.482;2022-07-24T09:54:37;6.22;;;5.60;;
69956;SDS011;57283;54.816;9.482;2022-07-24T09:57:16;7.18;;;5.57;;
69956;SDS011;57283;54.816;9.482;2022-07-24T09:59:45;6.60;;;5.35;;
69956;SDS011;57283;54.816;9.482;2022-07-24T10:02:20;6.15;;;4.82;;
69956;SDS011;57283;54.816;9.482;2022-07-24T10:04:49;6.85;;;6.07;;
69956;SDS011;57283;54.816;9.482;2022-07-24T10:07:18;6.43;;;5.70;;
69956;SDS011;57283;54.816;9.482;2022-07-24T10:09:47;5.37;;;4.80;;
69956;SDS011;57283;54.816;9.482;2022-07-24T10:12:16;6.53;;;5.40;;
69956;SDS011;57283;54.816;9.482;2022-07-24T10:14:44;6.32;;;5.20;;
69956;SDS011;57283;54.816;9.482;2022-07-24T10:17:13;7.63;;;6.00;;
69956;SDS011;57283;54.816;9.482;2022-07-24T10:19:51;6.78;;;5.30;;
69956;SDS011;57283;54.816;9.482;2022-07-24T10:22:22;7.05;;;5.30;;
69956;SDS011;57283;54.816;9.482;2022-07-24T10:24:54;6.95;;;5.13;;
69956;SDS011;57283;54.816;9.482;2022-07-24T10:27:27;6.05;;;4.60;;
69956;SDS011;57283;54.816;9.482;2022-07-24T10:29:56;6.97;;;5.22;;
69956;SDS011;57283;54.816;9.482;2022-07-24T10:32:24;6.32;;;5.18;;
69956;SDS011;57283;54.816;9.482;2022-07-24T10:34:55;6.33;;;5.20;;
69956;SDS011;57283;54.816;9.482;2022-07-24T10:37:28;6.60;;;5.20;;
69956;SDS011;57283;54.816;9.482;2022-07-24T10:40:02;5.90;;;5.30;;
69956;SDS011;57283;54.816;9.482;2022-07-24T10:42:30;5.40;;;4.85;;
69956;SDS011;57283;54.816;9.482;2022-07-24T10:45:14;6.35;;;5.43;;
69956;SDS011;57283;54.816;9.482;2022-07-24T10:47:43;7.20;;;5.65;;
69956;SDS011;57283;54.816;9.482;2022-07-24T10:50:11;8.88;;;6.05;;
69956;SDS011;57283;54.816;9.482;2022-07-24T10:52:42;7.88;;;5.82;;
69956;SDS011;57283;54.816;9.482;2022-07-24T10:55:19;7.68;;;6.00;;
69956;SDS011;57283;54.816;9.482;2022-07-24T10:57:48;7.07;;;5.77;;
69956;SDS011;57283;54.816;9.482;2022-07-24T11:00:23;7.07;;;5.97;;
69956;SDS011;57283;54.816;9.482;2022-07-24T11:02:55;6.93;;;6.18;;
69956;SDS011;57283;54.816;9.482;2022-07-24T11:05:23;7.50;;;6.15;;
69956;SDS011;57283;54.816;9.482;2022-07-24T11:10:46;7.15;;;5.70;;
69956;SDS011;57283;54.816;9.482;2022-07-24T11:13:38;6.57;;;5.78;;
69956;SDS011;57283;54.816;9.482;2022-07-24T11:16:11;6.75;;;5.93;;
69956;SDS011;57283;54.816;9.482;2022-07-24T11:18:40;6.80;;;6.10;;
69956;SDS011;57283;54.816;9.482;2022-07-24T11:21:22;6.25;;;5.65;;
69956;SDS011;57283;54.816;9.482;2022-07-24T11:26:46;9.50;;;5.70;;
69956;SDS011;57283;54.816;9.482;2022-07-24T11:29:14;8.02;;;5.80;;
69956;SDS011;57283;54.816;9.482;2022-07-24T11:31:43;6.75;;;5.68;;
69956;SDS011;57283;54.816;9.482;2022-07-24T11:34:11;6.70;;;5.90;;
69956;SDS011;57283;54.816;9.482;2022-07-24T11:36:40;7.55;;;6.13;;
69956;SDS011;57283;54.816;9.482;2022-07-24T11:39:08;7.82;;;6.38;;
69956;SDS011;57283;54.816;9.482;2022-07-24T11:41:42;7.78;;;5.95;;
69956;SDS011;57283;54.816;9.482;2022-07-24T11:44:13;7.83;;;6.17;;
69956;SDS011;57283;54.816;9.482;2022-07-24T11:46:41;7.93;;;6.23;;
69956;SDS011;57283;54.816;9.482;2022-07-24T11:49:09;8.70;;;6.88;;
69956;SDS011;57283;54.816;9.482;2022-07-24T11:51:40;9.10;;;5.90;;
69956;SDS011;57283;54.816;9.482;2022-07-24T11:54:08;8.95;;;6.50;;
69956;SDS011;57283;54.816;9.482;2022-07-24T11:56:36;13.02;;;6.20;;
69956;SDS011;57283;54.816;9.482;2022-07-24T11:59:04;8.13;;;5.80;;
69956;SDS011;57283;54.816;9.482;2022-07-24T12:01:33;8.65;;;5.90;;
69956;SDS011;57283;54.816;9.482;2022-07-24T12:04:00;10.05;;;5.90;;
69956;SDS011;57283;54.816;9.482;2022-07-24T12:06:29;9.48;;;6.55;;
69956;SDS011;57283;54.816;9.482;2022-07-24T12:08:57;7.82;;;6.10;;
69956;SDS011;57283;54.816;9.482;2022-07-24T12:11:25;9.90;;;6.37;;
69956;SDS011;57283;54.816;9.482;2022-07-24T12:13:53;7.90;;;5.70;;
69956;SDS011;57283;54.816;9.482;2022-07-24T12:16:24;10.85;;;6.07;;
69956;SDS011;57283;54.816;9.482;2022-07-24T12:18:54;7.18;;;5.78;;
69956;SDS011;57283;54.816;9.482;2022-07-24T12:21:37;8.20;;;6.30;;
69956;SDS011;57283;54.816;9.482;2022-07-24T12:24:06;9.10;;;6.70;;
69956;SDS011;57283;54.816;9.482;2022-07-24T12:26:38;8.95;;;6.82;;
69956;SDS011;57283;54.816;9.482;2022-07-24T12:29:14;8.20;;;6.72;;
69956;SDS011;57283;54.816;9.482;2022-07-24T12:31:42;9.20;;;6.70;;
69956;SDS011;57283;54.816;9.482;2022-07-24T12:34:11;8.98;;;6.70;;
69956;SDS011;57283;54.816;9.482;2022-07-24T12:36:39;7.20;;;5.80;;
69956;SDS011;57283;54.816;9.482;2022-07-24T12:39:07;7.78;;;5.60;;
69956;SDS011;57283;54.816;9.482;2022-07-24T12:41:43;7.25;;;5.82;;
69956;SDS011;57283;54.816;9.482;2022-07-24T12:44:15;7.85;;;5.22;;
69956;SDS011;57283;54.816;9.482;2022-07-24T12:46:43;7.70;;;5.85;;
69956;SDS011;57283;54.816;9.482;2022-07-24T12:49:13;7.60;;;5.37;;
69956;SDS011;57283;54.816;9.482;2022-07-24T12:51:48;6.45;;;5.22;;
69956;SDS011;57283;54.816;9.482;2022-07-24T12:54:17;7.68;;;5.13;;
69956;SDS011;57283;54.816;9.482;2022-07-24T12:56:45;8.48;;;5.38;;
69956;SDS011;57283;54.816;9.482;2022-07-24T12:59:22;7.43;;;5.15;;
69956;SDS011;57283;54.816;9.482;2022-07-24T13:01:51;7.00;;;5.10;;
69956;SDS011;57283;54.816;9.482;2022-07-24T13:04:21;7.32;;;5.53;;
69956;SDS011;57283;54.816;9.482;2022-07-24T13:06:50;7.57;;;5.72;;
69956;SDS011;57283;54.816;9.482;2022-07-24T13:09:18;7.07;;;5.50;;
69956;SDS011;57283;54.816;9.482;2022-07-24T13:11:46;7.72;;;5.90;;
69956;SDS011;57283;54.816;9.482;2022-07-24T13:14:14;7.90;;;6.00;;
69956;SDS011;57283;54.816;9.482;2022-07-24T13:16:43;9.00;;;6.55;;
69956;SDS011;57283;54.816;9.482;2022-07-24T13:19:11;8.13;;;6.03;;
69956;SDS011;57283;54.816;9.482;2022-07-24T13:21:40;11.27;;;7.97;;
69956;SDS011;57283;54.816;9.482;2022-07-24T13:24:09;9.27;;;6.60;;
69956;SDS011;57283;54.816;9.482;2022-07-24T13:26:37;7.80;;;5.73;;
69956;SDS011;57283;54.816;9.482;2022-07-24T13:29:05;8.60;;;6.20;;
69956;SDS011;57283;54.816;9.482;2022-07-24T13:31:33;8.88;;;6.45;;
69956;SDS011;57283;54.816;9.482;2022-07-24T13:34:01;7.88;;;6.30;;
69956;SDS011;57283;54.816;9.482;2022-07-24T13:36:29;8.73;;;6.10;;
69956;SDS011;57283;54.816;9.482;2022-07-24T13:38:58;7.93;;;5.93;;
69956;SDS011;57283;54.816;9.482;2022-07-24T13:41:26;9.55;;;6.65;;
69956;SDS011;57283;54.816;9.482;2022-07-24T13:43:54;7.70;;;6.72;;
69956;SDS011;57283;54.816;9.482;2022-07-24T13:46:23;10.57;;;7.40;;
69956;SDS011;57283;54.816;9.482;2022-07-24T13:48:52;9.35;;;7.28;;
69956;SDS011;57283;54.816;9.482;2022-07-24T13:51:23;8.47;;;6.40;;
69956;SDS011;57283;54.816;9.482;2022-07-24T13:53:51;9.23;;;6.47;;
69956;SDS011;57283;54.816;9.482;2022-07-24T13:56:20;7.40;;;6.20;;
69956;SDS011;57283;54.816;9.482;2022-07-24T13:58:49;8.35;;;6.93;;
69956;SDS011;57283;54.816;9.482;2022-07-24T14:01:17;7.85;;;6.85;;
69956;SDS011;57283;54.816;9.482;2022-07-24T14:03:57;10.43;;;7.30;;
69956;SDS011;57283;54.816;9.482;2022-07-24T14:06:44;8.65;;;6.75;;
69956;SDS011;57283;54.816;9.482;2022-07-24T14:09:12;9.57;;;7.47;;
69956;SDS011;57283;54.816;9.482;2022-07-24T14:11:41;9.90;;;7.65;;
69956;SDS011;57283;54.816;9.482;2022-07-24T14:14:08;10.18;;;7.25;;
69956;SDS011;57283;54.816;9.482;2022-07-24T14:16:36;10.53;;;6.50;;
69956;SDS011;57283;54.816;9.482;2022-07-24T14:19:04;10.77;;;6.93;;
69956;SDS011;57283;54.816;9.482;2022-07-24T14:21:32;7.45;;;6.53;;
69956;SDS011;57283;54.816;9.482;2022-07-24T14:24:00;8.18;;;5.88;;
69956;SDS011;57283;54.816;9.482;2022-07-24T14:26:29;9.02;;;6.78;;
69956;SDS011;57283;54.816;9.482;2022-07-24T14:28:58;7.53;;;5.70;;
69956;SDS011;57283;54.816;9.482;2022-07-24T14:31:26;6.65;;;5.85;;
69956;SDS011;57283;54.816;9.482;2022-07-24T14:33:54;7.47;;;5.57;;
69956;SDS011;57283;54.816;9.482;2022-07-24T14:36:22;7.10;;;5.97;;
69956;SDS011;57283;54.816;9.482;2022-07-24T14:38:49;7.35;;;5.43;;
69956;SDS011;57283;54.816;9.482;2022-07-24T14:41:17;6.17;;;5.07;;
69956;SDS011;57283;54.816;9.482;2022-07-24T14:43:44;6.53;;;5.05;;
69956;SDS011;57283;54.816;9.482;2022-07-24T14:46:13;5.82;;;5.05;;
69956;SDS011;57283;54.816;9.482;2022-07-24T14:48:42;6.20;;;4.90;;
69956;SDS011;57283;54.816;9.482;2022-07-24T14:51:10;6.38;;;5.18;;
69956;SDS011;57283;54.816;9.482;2022-07-24T14:53:38;5.37;;;4.53;;
69956;SDS011;57283;54.816;9.482;2022-07-24T14:56:06;6.40;;;5.00;;
69956;SDS011;57283;54.816;9.482;2022-07-24T14:58:34;6.35;;;4.80;;
69956;SDS011;57283;54.816;9.482;2022-07-24T15:01:01;5.97;;;5.18;;